createdAt,value
2022-12-29T00:01:39.161Z,1.75
2022-12-29T00:04:11.383Z,1.75
2022-12-29T00:06:41.048Z,1.75
2022-12-29T00:09:07.649Z,1.70
2022-12-29T00:11:34.630Z,1.50
2022-12-29T00:14:25.690Z,1.95
2022-12-29T00:16:52.651Z,1.70
2022-12-29T00:19:38.041Z,1.73
2022-12-29T00:22:23.499Z,1.95
2022-12-29T00:25:02.520Z,1.73
2022-12-29T00:27:49.368Z,1.33
2022-12-29T00:30:40.616Z,1.42
2022-12-29T00:33:37.094Z,1.30
2022-12-29T00:36:03.522Z,1.75
2022-12-29T00:38:50.591Z,1.40
2022-12-29T00:41:35.772Z,1.30
2022-12-29T00:44:08.417Z,1.60
2022-12-29T00:46:35.799Z,1.30
2022-12-29T00:49:22.373Z,1.20
2022-12-29T00:51:49.450Z,1.40
2022-12-29T00:54:16.491Z,1.55
2022-12-29T00:56:50.349Z,1.27
2022-12-29T00:59:17.782Z,1.30
2022-12-29T01:01:45.189Z,1.05
2022-12-29T01:04:12.190Z,1.20
2022-12-29T01:06:40.386Z,1.17
2022-12-29T01:09:27.132Z,1.00
2022-12-29T01:11:53.486Z,1.10
2022-12-29T01:14:20.814Z,1.00
2022-12-29T01:16:47.574Z,0.98
2022-12-29T01:19:15.964Z,1.17
2022-12-29T01:21:45.180Z,0.90
2022-12-29T01:24:11.551Z,0.90
2022-12-29T01:26:38.033Z,1.30
2022-12-29T01:29:04.418Z,1.00
2022-12-29T01:31:30.844Z,1.17
2022-12-29T01:33:57.232Z,1.25
2022-12-29T01:36:25.408Z,0.95
2022-12-29T01:38:51.964Z,1.08
2022-12-29T01:41:18.706Z,1.33
2022-12-29T01:44:01.917Z,0.90
2022-12-29T01:46:44.076Z,1.08
2022-12-29T01:49:24.380Z,0.80
2022-12-29T01:51:59.778Z,0.90
2022-12-29T01:54:31.917Z,1.20
2022-12-29T01:57:01.489Z,1.02
2022-12-29T01:59:35.636Z,1.20
2022-12-29T02:02:02.732Z,1.25
2022-12-29T02:04:33.325Z,1.42
2022-12-29T02:07:08.637Z,1.13
2022-12-29T02:09:35.212Z,1.38
2022-12-29T02:12:01.745Z,1.35
2022-12-29T02:14:28.169Z,1.10
2022-12-29T02:16:54.562Z,1.10
2022-12-29T02:19:58.564Z,1.20
2022-12-29T02:22:36.717Z,1.02
2022-12-29T02:25:27.740Z,1.17
2022-12-29T02:27:56.725Z,1.20
2022-12-29T02:30:44.779Z,1.10
2022-12-29T02:33:46.749Z,1.20
2022-12-29T02:36:28.385Z,1.25
2022-12-29T02:39:14.426Z,1.00
2022-12-29T02:42:09.358Z,1.20
2022-12-29T02:44:48.857Z,0.88
2022-12-29T02:47:30.342Z,1.00
2022-12-29T02:50:19.367Z,0.90
2022-12-29T02:53:10.842Z,0.90
2022-12-29T02:55:37.261Z,1.08
2022-12-29T02:58:09.658Z,1.02
2022-12-29T03:00:43.824Z,0.90
2022-12-29T03:03:25.708Z,0.70
2022-12-29T03:06:30.477Z,0.90
2022-12-29T03:09:19.020Z,0.90
2022-12-29T03:12:08.941Z,0.70
2022-12-29T03:15:01.632Z,0.70
2022-12-29T03:17:36.005Z,0.68
2022-12-29T03:20:08.609Z,0.70
2022-12-29T03:22:40.507Z,0.70
2022-12-29T03:25:16.576Z,0.70
2022-12-29T03:27:47.947Z,0.90
2022-12-29T03:30:15.123Z,0.77
2022-12-29T03:32:55.585Z,0.70
2022-12-29T03:35:25.825Z,0.75
2022-12-29T03:38:11.891Z,0.70
2022-12-29T03:40:42.701Z,0.82
2022-12-29T03:43:10.086Z,0.70
2022-12-29T03:45:36.434Z,0.52
2022-12-29T03:48:02.976Z,0.70
2022-12-29T03:50:29.346Z,0.60
2022-12-29T03:52:55.710Z,0.60
2022-12-29T03:55:22.024Z,0.60
2022-12-29T03:57:48.380Z,0.80
2022-12-29T04:00:15.110Z,0.80
2022-12-29T04:02:41.897Z,0.55
2022-12-29T04:05:08.681Z,0.60
2022-12-29T04:07:35.089Z,0.57
2022-12-29T04:10:01.464Z,0.68
2022-12-29T04:12:28.175Z,0.60
2022-12-29T04:14:54.781Z,0.60
2022-12-29T04:17:21.257Z,0.90
2022-12-29T04:19:47.690Z,0.80
2022-12-29T04:22:14.074Z,1.00
2022-12-29T04:24:40.721Z,0.80
2022-12-29T04:27:07.093Z,0.60
2022-12-29T04:29:34.348Z,0.77
2022-12-29T04:32:00.745Z,0.88
2022-12-29T04:34:27.118Z,1.05
2022-12-29T04:36:53.571Z,0.90
2022-12-29T04:39:19.956Z,0.82
2022-12-29T04:41:47.251Z,1.33
2022-12-29T04:44:13.767Z,0.90
2022-12-29T04:46:40.686Z,0.80
2022-12-29T04:49:09.519Z,0.80
2022-12-29T04:51:36.506Z,0.80
2022-12-29T04:54:02.911Z,0.70
2022-12-29T04:56:29.343Z,1.02
2022-12-29T04:58:55.756Z,0.77
2022-12-29T05:01:22.323Z,0.90
2022-12-29T05:03:51.341Z,0.73
2022-12-29T05:06:17.738Z,0.80
2022-12-29T05:08:45.020Z,0.60
2022-12-29T05:11:11.441Z,0.90
2022-12-29T05:13:37.832Z,0.90
2022-12-29T05:16:04.480Z,0.80
2022-12-29T05:18:30.908Z,1.10
2022-12-29T05:20:57.369Z,0.88
2022-12-29T05:23:23.710Z,0.50
2022-12-29T05:25:50.068Z,0.75
2022-12-29T05:28:16.438Z,0.60
2022-12-29T05:30:44.953Z,0.80
2022-12-29T05:33:12.666Z,0.60
2022-12-29T05:35:39.091Z,0.50
2022-12-29T05:38:05.417Z,0.65
2022-12-29T05:40:31.872Z,0.60
2022-12-29T05:42:59.261Z,0.60
2022-12-29T05:45:25.686Z,0.50
2022-12-29T05:47:52.203Z,0.50
2022-12-29T05:50:18.574Z,0.60
2022-12-29T05:52:44.994Z,0.70
2022-12-29T05:55:12.152Z,0.80
2022-12-29T05:57:39.011Z,0.50
2022-12-29T06:00:06.464Z,0.60
2022-12-29T06:02:33.054Z,0.63
2022-12-29T06:04:59.741Z,0.43
2022-12-29T06:07:26.216Z,0.60
2022-12-29T06:09:52.578Z,0.47
2022-12-29T06:12:18.937Z,0.65
2022-12-29T06:14:45.417Z,0.80
2022-12-29T06:17:11.830Z,0.47
2022-12-29T06:19:38.284Z,0.57
2022-12-29T06:22:04.693Z,0.68
2022-12-29T06:24:31.331Z,0.50
2022-12-29T06:26:57.696Z,0.60
2022-12-29T06:29:24.083Z,0.45
2022-12-29T06:31:52.013Z,0.80
2022-12-29T06:34:18.500Z,0.60
2022-12-29T06:36:44.853Z,1.02
2022-12-29T06:39:11.866Z,0.80
2022-12-29T06:41:38.852Z,0.60
2022-12-29T06:44:05.447Z,0.93
2022-12-29T06:46:31.984Z,1.00
2022-12-29T06:48:58.470Z,0.90
2022-12-29T06:51:24.985Z,1.20
2022-12-29T06:53:51.386Z,0.65
2022-12-29T06:56:17.806Z,1.02
2022-12-29T06:58:44.245Z,0.70
2022-12-29T07:01:10.865Z,0.85
2022-12-29T07:03:37.290Z,0.80
2022-12-29T07:06:04.192Z,0.80
2022-12-29T07:08:30.533Z,1.10
2022-12-29T07:10:56.933Z,0.70
2022-12-29T07:13:23.374Z,0.90
2022-12-29T07:15:49.825Z,0.85
2022-12-29T07:18:16.277Z,1.15
2022-12-29T07:20:43.685Z,0.88
2022-12-29T07:23:10.135Z,0.70
2022-12-29T07:25:37.003Z,0.95
2022-12-29T07:28:04.535Z,1.00
2022-12-29T07:30:30.990Z,0.90
2022-12-29T07:32:57.920Z,1.05
2022-12-29T07:35:24.339Z,1.00
2022-12-29T07:37:51.255Z,1.10
2022-12-29T07:40:17.723Z,0.95
2022-12-29T07:42:45.287Z,1.40
2022-12-29T07:45:11.839Z,1.20
2022-12-29T07:47:38.177Z,1.27
2022-12-29T07:50:05.845Z,0.98
2022-12-29T07:52:32.245Z,0.80
2022-12-29T07:54:58.686Z,1.00
2022-12-29T07:57:31.306Z,1.02
2022-12-29T07:59:58.327Z,1.27
2022-12-29T08:02:24.885Z,1.00
2022-12-29T08:04:51.384Z,1.05
2022-12-29T08:07:17.821Z,1.00
2022-12-29T08:09:44.250Z,0.90
2022-12-29T08:12:13.374Z,0.95
2022-12-29T08:14:39.847Z,1.27
2022-12-29T08:17:06.416Z,1.00
2022-12-29T08:19:32.852Z,1.02
2022-12-29T08:21:59.213Z,1.17
2022-12-29T08:24:25.658Z,1.38
2022-12-29T08:26:52.087Z,1.02
2022-12-29T08:29:18.501Z,1.00
2022-12-29T08:31:45.003Z,0.90
2022-12-29T08:34:11.893Z,0.85
2022-12-29T08:36:38.222Z,0.85
2022-12-29T08:39:04.744Z,1.42
2022-12-29T08:41:31.431Z,1.10
2022-12-29T08:43:57.918Z,1.20
2022-12-29T08:46:24.496Z,1.00
2022-12-29T08:48:50.942Z,1.10
2022-12-29T08:51:22.792Z,1.02
2022-12-29T08:53:51.597Z,1.25
2022-12-29T08:56:18.284Z,1.20
2022-12-29T08:58:44.666Z,1.00
2022-12-29T09:01:11.664Z,1.30
2022-12-29T09:04:12.931Z,1.25
2022-12-29T09:06:24.904Z,1.15
2022-12-29T09:08:51.340Z,1.42
2022-12-29T09:11:20.955Z,1.33
2022-12-29T09:13:48.171Z,1.23
2022-12-29T09:16:16.167Z,1.20
2022-12-29T09:18:43.108Z,1.17
2022-12-29T09:21:11.592Z,1.40
2022-12-29T09:23:39.051Z,1.33
2022-12-29T09:26:05.595Z,1.70
2022-12-29T09:28:32.333Z,1.15
2022-12-29T09:30:59.781Z,1.30
2022-12-29T09:33:26.559Z,1.70
2022-12-29T09:35:58.918Z,1.40
2022-12-29T09:38:27.252Z,1.38
2022-12-29T09:40:57.027Z,1.05
2022-12-29T09:43:41.762Z,1.65
2022-12-29T09:46:24.552Z,1.70
2022-12-29T09:49:19.904Z,1.20
2022-12-29T09:51:50.340Z,1.30
2022-12-29T09:54:29.069Z,1.42
2022-12-29T09:56:56.940Z,1.38
2022-12-29T09:59:40.380Z,1.30
2022-12-29T10:02:18.072Z,1.42
2022-12-29T10:04:44.802Z,1.13
2022-12-29T10:07:31.294Z,1.50
2022-12-29T10:10:08.178Z,1.80
2022-12-29T10:13:01.459Z,1.30
2022-12-29T10:16:01.100Z,1.60
2022-12-29T10:18:46.123Z,1.60
2022-12-29T10:21:37.726Z,1.35
2022-12-29T10:24:08.292Z,1.10
2022-12-29T10:26:41.520Z,1.30
2022-12-29T10:29:18.643Z,1.45
2022-12-29T10:31:50.428Z,2.03
2022-12-29T10:34:34.363Z,1.50
2022-12-29T10:37:33.436Z,1.40
2022-12-29T10:40:12.349Z,1.40
2022-12-29T10:42:45.906Z,1.27
2022-12-29T10:45:18.569Z,1.30
2022-12-29T10:48:04.921Z,1.13
2022-12-29T10:50:31.614Z,1.42
2022-12-29T10:53:05.684Z,1.58
2022-12-29T10:55:36.156Z,1.65
2022-12-29T10:58:05.977Z,1.48
2022-12-29T11:00:34.323Z,1.20
2022-12-29T11:03:22.763Z,1.42
2022-12-29T11:06:09.813Z,1.17
2022-12-29T11:08:46.293Z,1.70
2022-12-29T11:11:13.136Z,1.63
2022-12-29T11:13:51.668Z,1.40
2022-12-29T11:16:35.485Z,1.60
2022-12-29T11:19:02.859Z,1.27
2022-12-29T11:21:43.023Z,1.10
2022-12-29T11:24:27.852Z,1.73
2022-12-29T11:27:09.158Z,1.38
2022-12-29T11:29:42.124Z,1.38
2022-12-29T11:32:22.759Z,1.92
2022-12-29T11:34:54.588Z,1.52
2022-12-29T11:37:31.475Z,1.40
2022-12-29T11:39:59.319Z,1.63
2022-12-29T11:42:49.588Z,1.33
2022-12-29T11:45:21.247Z,1.67
2022-12-29T11:47:57.676Z,1.38
2022-12-29T11:50:33.485Z,1.88
2022-12-29T11:53:21.123Z,1.45
2022-12-29T11:56:00.189Z,1.40
2022-12-29T11:58:33.356Z,1.60
2022-12-29T12:01:18.050Z,1.33
2022-12-29T12:04:14.554Z,1.52
2022-12-29T12:06:50.210Z,1.42
2022-12-29T12:09:36.266Z,1.50
2022-12-29T12:12:04.577Z,1.08
2022-12-29T12:14:41.940Z,1.30
2022-12-29T12:17:24.922Z,1.70
2022-12-29T12:20:33.135Z,1.50
2022-12-29T12:23:13.228Z,1.30
2022-12-29T12:25:48.737Z,2.08
2022-12-29T12:28:30.445Z,2.03
2022-12-29T12:31:02.379Z,1.85
2022-12-29T12:33:34.622Z,1.90
2022-12-29T12:36:10.257Z,2.20
2022-12-29T12:39:02.110Z,1.33
2022-12-29T12:41:47.580Z,1.73
2022-12-29T12:44:29.564Z,1.67
2022-12-29T12:47:10.364Z,2.17
2022-12-29T12:50:14.567Z,1.25
2022-12-29T12:53:07.034Z,1.42
2022-12-29T12:55:58.316Z,1.50
2022-12-29T12:58:42.497Z,1.33
2022-12-29T13:01:16.693Z,1.08
2022-12-29T13:03:56.020Z,1.27
2022-12-29T13:06:36.200Z,1.80
2022-12-29T13:09:19.684Z,1.70
2022-12-29T13:11:58.958Z,1.25
2022-12-29T13:14:25.338Z,1.50
2022-12-29T13:17:09.233Z,1.83
2022-12-29T13:19:48.998Z,1.92
2022-12-29T13:22:21.501Z,1.95
2022-12-29T13:24:50.882Z,2.08
2022-12-29T13:27:28.747Z,1.63
2022-12-29T13:30:24.204Z,1.75
2022-12-29T13:33:38.243Z,1.50
2022-12-29T13:36:10.247Z,1.27
2022-12-29T13:38:40.330Z,2.15
2022-12-29T13:41:15.048Z,1.90
2022-12-29T13:43:45.047Z,1.58
2022-12-29T13:46:21.003Z,1.92
2022-12-29T13:51:21.400Z,1.77
2022-12-29T13:54:26.214Z,1.60
2022-12-29T13:57:18.617Z,2.17
2022-12-29T14:00:22.684Z,1.35
2022-12-29T14:03:10.805Z,1.50
2022-12-29T14:05:37.388Z,1.30
2022-12-29T14:08:17.837Z,1.50
2022-12-29T14:10:52.790Z,1.83
2022-12-29T14:13:26.000Z,1.77
2022-12-29T14:15:55.600Z,1.35
2022-12-29T14:18:24.236Z,1.23
2022-12-29T14:21:02.007Z,1.70
2022-12-29T14:23:35.522Z,1.45
2022-12-29T14:26:08.520Z,2.08
2022-12-29T14:28:49.130Z,1.50
2022-12-29T14:31:15.693Z,1.88
2022-12-29T14:34:08.480Z,1.77
2022-12-29T14:36:54.538Z,1.95
2022-12-29T14:39:38.931Z,1.98
2022-12-29T14:42:07.220Z,1.88
2022-12-29T14:44:34.344Z,1.85
2022-12-29T14:47:08.852Z,1.70
2022-12-29T14:49:45.348Z,1.80
2022-12-29T14:52:17.564Z,1.90
2022-12-29T14:54:50.220Z,2.00
2022-12-29T14:57:28.237Z,1.55
2022-12-29T15:00:01.585Z,1.80
2022-12-29T15:02:36.536Z,1.70
2022-12-29T15:05:04.112Z,1.87
2022-12-29T15:07:31.715Z,1.98
2022-12-29T15:10:06.096Z,1.88
2022-12-29T15:12:44.462Z,2.20
2022-12-29T15:15:38.792Z,2.90
2022-12-29T15:18:27.351Z,2.85
2022-12-29T15:21:00.773Z,2.95
2022-12-29T15:23:28.251Z,2.17
2022-12-29T15:25:58.307Z,2.10
2022-12-29T15:28:25.940Z,2.15
2022-12-29T15:30:57.868Z,2.22
2022-12-29T15:33:28.090Z,1.85
2022-12-29T15:35:56.609Z,2.15
2022-12-29T15:38:32.210Z,2.00
2022-12-29T15:41:06.954Z,1.85
2022-12-29T15:43:51.327Z,2.08
2022-12-29T15:46:18.206Z,1.70
2022-12-29T15:48:44.889Z,1.60
2022-12-29T15:51:17.273Z,1.80
2022-12-29T15:53:48.432Z,1.40
2022-12-29T15:56:15.088Z,1.48
2022-12-29T15:58:48.573Z,1.42
2022-12-29T16:01:30.002Z,1.85
2022-12-29T16:03:59.006Z,1.85
2022-12-29T16:06:44.773Z,1.30
2022-12-29T16:09:19.799Z,1.10
2022-12-29T16:11:54.162Z,1.50
2022-12-29T16:14:25.983Z,1.38
2022-12-29T16:16:52.576Z,1.35
2022-12-29T16:19:29.822Z,1.67
2022-12-29T16:21:58.618Z,2.30
2022-12-29T16:24:29.722Z,1.45
2022-12-29T16:27:21.180Z,1.05
2022-12-29T16:29:53.035Z,1.17
2022-12-29T16:32:47.014Z,1.08
2022-12-29T16:35:25.353Z,1.10
2022-12-29T16:38:22.442Z,1.17
2022-12-29T16:41:03.016Z,1.10
2022-12-29T16:43:31.393Z,1.05
2022-12-29T16:46:00.746Z,1.50
2022-12-29T16:48:28.535Z,1.50
2022-12-29T16:51:17.110Z,1.38
2022-12-29T16:53:51.133Z,1.15
2022-12-29T16:56:21.388Z,2.70
2022-12-29T16:59:30.115Z,2.45
2022-12-29T17:01:57.931Z,1.70
2022-12-29T17:04:24.402Z,2.05
2022-12-29T17:06:50.896Z,1.85
2022-12-29T17:09:25.865Z,1.80
2022-12-29T17:12:00.401Z,1.40
2022-12-29T17:14:44.037Z,2.10
2022-12-29T17:17:25.987Z,2.63
2022-12-29T17:19:55.206Z,2.20
2022-12-29T17:22:27.401Z,3.83
2022-12-29T17:24:58.711Z,3.55
2022-12-29T17:27:26.979Z,2.75
2022-12-29T17:29:57.420Z,3.20
2022-12-29T17:32:24.165Z,4.60
2022-12-29T17:34:50.503Z,3.42
2022-12-29T17:37:31.491Z,2.42
2022-12-29T17:39:57.971Z,2.00
2022-12-29T17:42:24.886Z,2.47
2022-12-29T17:44:51.309Z,1.83
2022-12-29T17:47:17.812Z,2.92
2022-12-29T17:49:46.193Z,3.60
2022-12-29T17:52:14.293Z,2.63
2022-12-29T17:54:51.360Z,2.60
2022-12-29T17:57:20.186Z,2.25
2022-12-29T17:59:46.693Z,2.10
2022-12-29T18:02:25.202Z,2.25
2022-12-29T18:04:52.420Z,2.08
2022-12-29T18:07:18.803Z,1.60
2022-12-29T18:09:45.355Z,1.45
2022-12-29T18:12:40.719Z,1.77
2022-12-29T18:15:16.461Z,1.50
2022-12-29T18:17:42.872Z,1.63
2022-12-29T18:20:09.293Z,1.40
2022-12-29T18:22:35.742Z,1.45
2022-12-29T18:25:02.880Z,1.17
2022-12-29T18:27:29.412Z,1.40
2022-12-29T18:29:55.926Z,1.50
2022-12-29T18:32:22.423Z,1.58
2022-12-29T18:34:48.888Z,1.35
2022-12-29T18:37:15.290Z,1.48
2022-12-29T18:39:41.683Z,1.70
2022-12-29T18:42:15.885Z,1.58
2022-12-29T18:44:42.256Z,1.40
2022-12-29T18:47:08.678Z,1.52
2022-12-29T18:49:35.084Z,11.85
2022-12-29T18:52:01.467Z,9.18
2022-12-29T18:54:31.056Z,6.47
2022-12-29T18:56:58.824Z,3.63
2022-12-29T18:59:25.492Z,2.00
2022-12-29T19:01:52.079Z,2.10
2022-12-29T19:04:18.648Z,2.13
2022-12-29T19:06:45.692Z,1.63
2022-12-29T19:09:12.207Z,1.73
2022-12-29T19:11:38.614Z,1.50
2022-12-29T19:14:05.187Z,2.08
2022-12-29T19:16:32.676Z,1.55
2022-12-29T19:19:09.394Z,1.50
2022-12-29T19:21:37.396Z,1.52
2022-12-29T19:24:04.052Z,1.60
2022-12-29T19:26:34.266Z,1.52
2022-12-29T19:29:00.982Z,1.50
2022-12-29T19:31:27.512Z,1.30
2022-12-29T19:33:54.378Z,1.52
2022-12-29T19:36:21.811Z,1.40
2022-12-29T19:38:48.612Z,1.80
2022-12-29T19:41:15.470Z,1.20
2022-12-29T19:43:41.941Z,1.60
2022-12-29T19:46:15.928Z,1.73
2022-12-29T19:48:42.698Z,1.40
2022-12-29T19:51:12.011Z,1.83
2022-12-29T19:53:38.446Z,1.90
2022-12-29T19:56:07.647Z,1.52
2022-12-29T19:58:36.375Z,1.33
2022-12-29T20:01:12.331Z,1.55
2022-12-29T20:03:39.372Z,1.35
2022-12-29T20:06:07.420Z,2.00
2022-12-29T20:08:34.387Z,1.55
2022-12-29T20:11:21.448Z,1.80
2022-12-29T20:13:48.076Z,2.20
2022-12-29T20:16:17.987Z,2.00
2022-12-29T20:18:44.808Z,1.60
2022-12-29T20:21:17.408Z,2.03
2022-12-29T20:23:45.090Z,1.70
2022-12-29T20:26:20.695Z,2.20
2022-12-29T20:28:47.488Z,2.05
2022-12-29T20:31:26.545Z,2.05
2022-12-29T20:33:54.027Z,1.88
2022-12-29T20:36:24.154Z,2.25
2022-12-29T20:38:53.284Z,2.00
2022-12-29T20:41:20.176Z,2.50
2022-12-29T20:43:46.629Z,2.60
2022-12-29T20:46:18.165Z,2.08
2022-12-29T20:48:46.923Z,2.83
2022-12-29T20:51:13.325Z,2.83
2022-12-29T20:53:40.353Z,2.63
2022-12-29T20:56:10.729Z,2.72
2022-12-29T20:58:59.912Z,2.83
2022-12-29T21:03:51.059Z,3.13
2022-12-29T21:06:19.785Z,2.13
2022-12-29T21:08:46.233Z,2.28
2022-12-29T21:11:12.960Z,2.70
2022-12-29T21:13:39.434Z,2.83
2022-12-29T21:16:09.008Z,2.60
2022-12-29T21:18:35.598Z,2.90
2022-12-29T21:21:04.538Z,2.22
2022-12-29T21:23:31.290Z,2.53
2022-12-29T21:25:57.827Z,2.72
2022-12-29T21:28:24.583Z,2.95
2022-12-29T21:30:51.541Z,2.92
2022-12-29T21:33:19.741Z,2.88
2022-12-29T21:35:47.441Z,2.58
2022-12-29T21:38:14.356Z,2.40
2022-12-29T21:40:40.877Z,2.28
2022-12-29T21:43:07.687Z,2.47
2022-12-29T21:45:34.309Z,2.72
2022-12-29T21:48:21.494Z,3.13
2022-12-29T21:51:08.964Z,3.05
2022-12-29T21:53:38.338Z,2.97
2022-12-29T21:56:17.892Z,3.33
2022-12-29T21:59:08.320Z,2.88
2022-12-29T22:01:55.896Z,2.47
2022-12-29T22:04:43.988Z,2.63
2022-12-29T22:07:31.093Z,3.00
2022-12-29T22:10:15.891Z,2.88
2022-12-29T22:13:00.718Z,2.40
2022-12-29T22:15:29.935Z,2.88
2022-12-29T22:17:56.344Z,2.67
2022-12-29T22:20:28.848Z,2.95
2022-12-29T22:22:55.980Z,2.95
2022-12-29T22:25:22.707Z,2.55
2022-12-29T22:27:54.220Z,3.03
2022-12-29T22:30:26.213Z,3.13
2022-12-29T22:32:52.639Z,2.90
2022-12-29T22:35:19.056Z,2.97
2022-12-29T22:37:45.379Z,2.75
2022-12-29T22:40:12.403Z,3.05
2022-12-29T22:42:39.500Z,3.63
2022-12-29T22:45:07.104Z,3.63
2022-12-29T22:47:33.679Z,3.00
2022-12-29T22:50:00.374Z,3.38
2022-12-29T22:52:26.760Z,2.70
2022-12-29T22:54:53.190Z,3.20
2022-12-29T22:57:19.520Z,2.50
2022-12-29T22:59:45.940Z,2.70
2022-12-29T23:02:12.324Z,3.10
2022-12-29T23:07:25.457Z,3.10
2022-12-29T23:09:51.821Z,2.83
2022-12-29T23:12:18.147Z,3.05
2022-12-29T23:14:44.507Z,3.20
2022-12-29T23:17:11.267Z,3.13
2022-12-29T23:19:37.856Z,2.50
2022-12-29T23:22:04.229Z,3.10
2022-12-29T23:24:30.570Z,2.60
2022-12-29T23:26:56.920Z,3.40
2022-12-29T23:29:24.311Z,3.17
2022-12-29T23:31:50.746Z,3.35
2022-12-29T23:34:17.604Z,2.88
2022-12-29T23:36:44.071Z,2.72
2022-12-29T23:39:17.913Z,2.90
2022-12-29T23:41:44.296Z,2.90
2022-12-29T23:44:10.724Z,3.17
2022-12-29T23:46:37.167Z,2.60
2022-12-29T23:49:03.537Z,2.83
2022-12-29T23:51:29.915Z,3.10
2022-12-29T23:53:56.508Z,3.00
2022-12-29T23:56:23.337Z,3.20
2022-12-29T23:58:50.562Z,2.75
